Airfield :
LOGIN :

Register | Disclaimer

   EN    FR    IT 

 










Legend :    VFR   Marginal VFR   IFR   Intensive IFR   Very Intensive IFR
Visi :
Ceiling :
>= 8 km
>= 3000ft
5 to 8 km
1000 to 3000 ft
1500m to 5 km
500 to 1000 ft
800 to 1500m
200 to 500 ft
< 800m
< 200 ft
Symbols :   Thunderstorms  Fog  Heavy snow  Heavy precipitations  Wind > 20 kt
SIGMETs :     Misc.  Thunderstorms  Icing  Turbulence  Mountain Waves  Volcanic Ashes







- Airport Elevation : 154 ft
- IATA code : SZZ


EPSC - Szczecin Goleniow

CURRENT METAR :
  • 230900Z 15012KT CAVOK 06/03 Q1005

EXPIRED METARs :
  • 230830Z 16013KT CAVOK 06/03 Q1005
  • 230800Z 15013KT CAVOK 06/03 Q1005
  • 230730Z 15014KT CAVOK 05/03 Q1005
  • 230700Z 15010KT CAVOK 05/03 Q1006
  • 230630Z 16010KT CAVOK 04/03 Q1006

TAF TAF EPSC
Valid from the 23 at 06:00 until the 24 at 06:00 UTC


230530Z 2306/2406 19010KT CAVOK
PROB30 2306/2308 1500 BR BKN004
TEMPO 2308/2321 21015G30KT
BECMG 2322/2401 BKN014
PROB40 2403/2406 3000 BR BKN005
No reported NOTAMs for that airfield.



MET'MAP, your aeronautical weather chart ! - Copyright ORBIFLY December 2007 - Disclaimer

ORBIFLY MET'MAP TEAM :

Programming & Development : Alexandra Zaïnal
Concept & Development : Baudouin d'Aumeries
Co-Development & Prog : Marc-Olivier Méhu
Technical & hardware support : Manuel Goepfert

Contact : metmap@orbifly.com




SOURCES & CREDITS :

   NOAA